Time;durP1;ratioP1;P1;durP2;ratioP2;P2;SDS_P1;SDS_P2;PMS_P1;PMS_P2;Temp;Humidity;BMP_temperature;BMP_pressure;BME280_temperature;BME280_humidity;BME280_pressure;Samples;Min_cycle;Max_cycle;Signal;HPM_P1;HPM_P2
2022/06/26 00:00:40;;;;;;;6.10;1.90;;;;;;;27.59;47.96;99296.31;4120003;28;20238;-70
2022/06/26 00:02:42;;;;;;;4.63;2.13;;;;;;;26.26;50.94;99280.44;4119872;28;20235;-70
2022/06/26 00:04:44;;;;;;;2.95;1.73;;;;;;;24.96;53.66;99297.66;4118729;28;20238;-70
2022/06/26 00:06:46;;;;;;;5.43;1.95;;;;;;;25.15;52.82;99308.06;4117403;28;20336;-71
2022/06/26 00:08:48;;;;;;;5.15;2.00;;;;;;;24.55;54.65;99299.31;4133599;28;20246;-71
2022/06/26 00:10:49;;;;;;;3.63;1.90;;;;;;;24.08;56.64;99292.72;4123203;28;20708;-73
2022/06/26 00:12:51;;;;;;;2.10;1.90;;;;;;;22.82;59.31;99319.84;4121246;28;20234;-70
2022/06/26 00:14:53;;;;;;;3.70;2.03;;;;;;;23.60;58.30;99287.13;4116820;28;20238;-70
2022/06/26 00:16:55;;;;;;;3.45;2.53;;;;;;;24.53;56.01;99285.16;4123496;28;20281;-70
2022/06/26 00:18:56;;;;;;;5.40;1.80;;;;;;;23.72;57.87;99293.25;4122347;28;20261;-70
2022/06/26 00:20:58;;;;;;;3.67;2.35;;;;;;;22.86;58.18;99315.56;4122684;28;20234;-70
2022/06/26 00:22:59;;;;;;;2.93;1.70;;;;;;;24.64;54.48;99301.25;4121570;28;20243;-70
2022/06/26 00:25:02;;;;;;;4.53;1.80;;;;;;;24.84;53.63;99327.78;4126379;28;20245;-70
2022/06/26 00:27:06;;;;;;;3.97;1.40;;;;;;;26.15;50.45;99334.16;4124915;28;20240;-70
2022/06/26 00:29:08;;;;;;;3.07;1.70;;;;;;;25.66;50.92;99362.66;4128365;28;20237;-70
2022/06/26 00:31:09;;;;;;;1.48;1.38;;;;;;;24.14;53.01;99378.59;4126077;28;20253;-70
2022/06/26 00:33:11;;;;;;;1.80;1.60;;;;;;;26.08;50.47;99339.88;4123341;28;20319;-69
2022/06/26 00:35:13;;;;;;;2.30;1.50;;;;;;;24.96;52.46;99356.66;4127549;28;20687;-69
2022/06/26 00:37:13;;;;;;;2.28;1.40;;;;;;;26.77;48.49;99350.44;4126692;28;20284;-70
2022/06/26 00:39:15;;;;;;;2.42;1.58;;;;;;;26.99;48.40;99363.72;4128963;28;20238;-70
2022/06/26 00:41:17;;;;;;;3.78;1.50;;;;;;;26.69;48.79;99374.44;4128726;28;20225;-69
2022/06/26 00:43:19;;;;;;;1.92;1.65;;;;;;;26.94;48.56;99372.75;4108681;28;20231;-69
2022/06/26 00:45:21;;;;;;;2.50;1.58;;;;;;;26.86;48.77;99370.59;4115958;28;20238;-69
2022/06/26 00:47:23;;;;;;;1.33;1.20;;;;;;;26.04;50.33;99367.91;4128463;28;20699;-69
2022/06/26 00:49:25;;;;;;;3.67;1.80;;;;;;;25.74;51.35;99355.84;4117917;28;20234;-69
2022/06/26 00:51:27;;;;;;;1.67;1.30;;;;;;;26.03;50.19;99349.94;4112281;28;20663;-69
2022/06/26 00:53:29;;;;;;;1.40;1.30;;;;;;;25.55;50.08;99352.84;4124752;28;20284;-69
2022/06/26 00:55:33;;;;;;;5.82;1.63;;;;;;;25.45;51.01;99348.19;4127214;28;20226;-70
2022/06/26 00:57:35;;;;;;;1.30;1.20;;;;;;;25.29;50.50;99362.78;4122326;28;20274;-69
2022/06/26 00:59:37;;;;;;;4.00;1.57;;;;;;;25.21;50.61;99347.81;4126256;28;20257;-69
2022/06/26 01:01:39;;;;;;;1.70;1.30;;;;;;;25.23;49.73;99353.78;4127916;28;20304;-69
2022/06/26 01:03:41;;;;;;;2.75;1.40;;;;;;;25.31;50.31;99353.28;4127011;28;20238;-69
2022/06/26 01:05:43;;;;;;;3.57;1.40;;;;;;;26.23;49.29;99349.13;4126828;28;20727;-69
2022/06/26 01:07:45;;;;;;;2.03;1.33;;;;;;;25.58;49.40;99355.84;4121672;28;20249;-69
2022/06/26 01:09:47;;;;;;;5.97;1.65;;;;;;;25.92;50.19;99354.53;4128225;28;20780;-69
2022/06/26 01:11:49;;;;;;;1.73;1.50;;;;;;;25.27;50.84;99354.06;4154690;28;20237;-69
2022/06/26 01:13:53;;;;;;;3.53;1.30;;;;;;;25.90;49.86;99349.34;4111444;28;20242;-69
2022/06/26 01:15:55;;;;;;;2.47;1.40;;;;;;;25.92;49.59;99338.19;4119351;28;20288;-70
2022/06/26 01:17:57;;;;;;;2.45;1.48;;;;;;;25.84;49.93;99350.44;4127851;28;20234;-70
2022/06/26 01:19:59;;;;;;;2.45;1.40;;;;;;;25.97;49.75;99354.56;4126021;28;20246;-70
2022/06/26 01:22:00;;;;;;;1.40;1.30;;;;;;;26.23;49.74;99360.81;4127579;28;20241;-69
2022/06/26 01:24:03;;;;;;;1.63;1.30;;;;;;;26.59;48.96;99362.72;4123430;28;20304;-70
2022/06/26 01:26:05;;;;;;;1.70;1.42;;;;;;;25.53;50.66;99377.59;4127658;28;20237;-68
2022/06/26 01:28:06;;;;;;;2.53;1.50;;;;;;;25.68;50.56;99371.38;4115693;28;20296;-68
2022/06/26 01:30:09;;;;;;;1.63;1.52;;;;;;;25.78;50.90;99357.78;4127894;28;20303;-68
2022/06/26 01:32:11;;;;;;;1.67;1.45;;;;;;;25.36;52.00;99357.97;4127289;28;20234;-68
2022/06/26 01:34:13;;;;;;;2.35;1.48;;;;;;;25.12;51.57;99352.09;4125948;28;20238;-68
2022/06/26 01:36:15;;;;;;;2.75;1.60;;;;;;;26.57;49.50;99343.94;4126820;28;20232;-69
2022/06/26 01:38:22;;;;;;;2.22;1.45;;;;;;;26.99;47.89;99337.25;4126791;28;20230;-68
2022/06/26 01:40:24;;;;;;;3.08;1.60;;;;;;;26.89;48.21;99348.19;4127148;28;20265;-68
2022/06/26 01:42:26;;;;;;;3.00;1.70;;;;;;;27.02;47.78;99333.16;4123169;28;20804;-69
2022/06/26 01:44:28;;;;;;;2.17;1.60;;;;;;;26.89;48.41;99321.75;4127096;28;20874;-69
2022/06/26 01:46:29;;;;;;;2.97;1.65;;;;;;;27.35;47.02;99328.97;4125906;28;20245;-68
2022/06/26 01:48:33;;;;;;;2.25;1.60;;;;;;;26.84;48.53;99340.88;4125035;28;20683;-69
2022/06/26 01:50:35;;;;;;;1.88;1.42;;;;;;;25.03;52.03;99360.75;4110953;28;20227;-68
2022/06/26 01:52:37;;;;;;;3.70;1.50;;;;;;;21.98;59.51;99348.59;4110908;28;20259;-68
2022/06/26 01:54:38;;;;;;;2.47;1.40;;;;;;;22.12;59.72;99316.63;4120745;28;20250;-68
2022/06/26 01:56:42;;;;;;;2.40;1.40;;;;;;;21.32;61.32;99308.41;4123005;28;20288;-67
2022/06/26 01:58:44;;;;;;;2.00;1.80;;;;;;;24.39;53.84;99303.84;4125513;28;20234;-68
2022/06/26 02:00:47;;;;;;;2.70;1.40;;;;;;;23.99;54.17;99316.84;4122431;28;20697;-69
2022/06/26 02:02:49;;;;;;;2.83;1.63;;;;;;;23.39;55.45;99322.19;4115839;28;20309;-69
2022/06/26 02:04:50;;;;;;;1.93;1.73;;;;;;;23.34;56.97;99300.41;4125244;28;20296;-69
2022/06/26 02:06:52;;;;;;;2.47;1.30;;;;;;;23.58;55.34;99314.53;4120368;28;20243;-68
2022/06/26 02:08:54;;;;;;;3.40;1.70;;;;;;;24.19;54.37;99305.31;4127319;28;20668;-68
2022/06/26 02:15:37;;;;;;;2.50;1.90;;;;;;;24.95;52.71;99312.34;4129592;28;20710;-66
2022/06/26 02:17:39;;;;;;;1.77;1.67;;;;;;;22.76;57.75;99326.25;4122631;28;20261;-67
2022/06/26 02:19:41;;;;;;;2.27;1.67;;;;;;;24.50;54.40;99313.69;4111247;28;20264;-66
2022/06/26 02:21:42;;;;;;;1.70;1.60;;;;;;;24.74;53.63;99327.69;4111421;28;20913;-67
2022/06/26 02:23:46;;;;;;;2.45;1.58;;;;;;;26.31;50.33;99333.03;4109631;28;20301;-67
2022/06/26 02:25:48;;;;;;;1.95;1.85;;;;;;;26.47;49.67;99350.19;4125580;28;20273;-67
2022/06/26 02:27:49;;;;;;;2.17;1.60;;;;;;;25.49;52.27;99354.72;4114786;28;20297;-66
2022/06/26 02:29:51;;;;;;;2.13;1.80;;;;;;;26.25;50.41;99341.47;4109963;28;20911;-66
2022/06/26 02:31:53;;;;;;;3.10;2.00;;;;;;;26.90;49.33;99330.75;4110484;28;20242;-66
2022/06/26 02:33:54;;;;;;;2.70;1.90;;;;;;;26.66;49.44;99353.19;4109715;28;20846;-67
2022/06/26 02:35:56;;;;;;;2.72;1.80;;;;;;;26.83;49.11;99355.59;4109010;28;20238;-66
2022/06/26 02:37:58;;;;;;;1.80;1.70;;;;;;;27.15;49.05;99348.97;4116773;28;20235;-66
2022/06/26 02:40:00;;;;;;;3.70;2.10;;;;;;;26.88;49.06;99339.22;4126963;28;20244;-66
2022/06/26 02:42:02;;;;;;;3.38;2.00;;;;;;;26.21;50.05;99332.22;4118462;28;20290;-66
2022/06/26 02:44:04;;;;;;;3.03;2.40;;;;;;;24.87;53.03;99329.16;4125076;28;20805;-66
2022/06/26 02:46:05;;;;;;;2.83;2.20;;;;;;;26.74;49.29;99318.25;4125312;28;20327;-66
2022/06/26 02:48:08;;;;;;;4.17;2.30;;;;;;;27.05;48.58;99324.44;4125498;28;20249;-66
2022/06/26 02:50:10;;;;;;;3.13;2.20;;;;;;;24.91;52.49;99338.41;4112597;28;20254;-67
2022/06/26 02:52:12;;;;;;;5.57;2.22;;;;;;;25.14;52.45;99322.72;4125203;28;20682;-66
2022/06/26 02:54:14;;;;;;;3.58;2.17;;;;;;;26.35;49.72;99316.94;4124951;28;20233;-66
2022/06/26 02:56:15;;;;;;;2.50;1.90;;;;;;;26.33;50.14;99332.75;4125470;28;20238;-67
2022/06/26 02:58:17;;;;;;;3.75;1.90;;;;;;;26.40;49.72;99340.66;4112461;28;20317;-67
2022/06/26 03:00:19;;;;;;;2.67;1.97;;;;;;;25.94;49.82;99355.91;4113450;28;20274;-66
2022/06/26 03:02:20;;;;;;;1.80;1.70;;;;;;;25.65;51.06;99346.59;4125887;28;20233;-66
2022/06/26 03:04:22;;;;;;;3.30;1.93;;;;;;;26.14;50.13;99349.66;4126037;28;20234;-66
2022/06/26 03:06:24;;;;;;;2.78;2.00;;;;;;;25.95;50.70;99354.84;4114438;28;20329;-67
2022/06/26 03:08:26;;;;;;;2.60;2.17;;;;;;;26.36;49.73;99353.22;4123189;28;20745;-67
2022/06/26 03:10:27;;;;;;;1.88;1.63;;;;;;;26.63;49.36;99369.28;4126056;28;20234;-66
2022/06/26 03:12:29;;;;;;;2.17;1.98;;;;;;;27.10;48.40;99375.47;4122993;28;20257;-66
2022/06/26 03:14:31;;;;;;;2.17;1.90;;;;;;;26.26;49.45;99387.53;4125251;28;20309;-66
2022/06/26 03:16:34;;;;;;;2.13;1.97;;;;;;;26.64;49.13;99384.53;4126024;28;20233;-67
2022/06/26 03:18:36;;;;;;;2.42;2.20;;;;;;;26.78;48.96;99384.81;4136714;28;20243;-66
2022/06/26 03:20:40;;;;;;;3.50;2.00;;;;;;;26.84;48.49;99379.06;4120545;28;20262;-66
2022/06/26 03:22:42;;;;;;;3.65;2.03;;;;;;;26.82;48.19;99377.69;4120359;28;20238;-66
2022/06/26 03:24:45;;;;;;;2.97;2.10;;;;;;;26.61;48.68;99371.47;4123628;28;20242;-65
2022/06/26 03:26:47;;;;;;;3.97;2.08;;;;;;;26.22;49.75;99369.28;4125522;28;20300;-67
2022/06/26 03:28:48;;;;;;;2.22;2.00;;;;;;;26.76;48.19;99374.16;4121699;28;20593;-66
2022/06/26 03:30:51;;;;;;;5.25;2.10;;;;;;;26.97;48.09;99383.09;4116922;28;20238;-66
2022/06/26 03:32:52;;;;;;;6.88;2.05;;;;;;;26.28;49.17;99390.78;4126282;28;20241;-67
2022/06/26 03:34:54;;;;;;;3.05;2.17;;;;;;;25.93;50.21;99386.94;4125236;28;20308;-66
2022/06/26 03:36:56;;;;;;;3.97;2.40;;;;;;;25.63;50.67;99371.38;4125966;28;20241;-66
2022/06/26 03:38:57;;;;;;;4.30;2.28;;;;;;;25.59;51.44;99357.47;4126975;28;20599;-67
2022/06/26 03:40:59;;;;;;;2.65;2.42;;;;;;;26.11;49.83;99360.28;4126989;28;20237;-67
2022/06/26 03:43:01;;;;;;;3.95;2.70;;;;;;;26.02;50.38;99356.50;4116992;28;20289;-66
2022/06/26 03:45:03;;;;;;;3.65;2.60;;;;;;;26.16;49.75;99361.09;4110141;28;20720;-66
2022/06/26 03:47:05;;;;;;;4.47;2.53;;;;;;;25.22;51.08;99366.59;4122254;28;20675;-67
2022/06/26 03:49:07;;;;;;;3.85;2.60;;;;;;;24.76;52.72;99374.47;4121692;28;20725;-66
2022/06/26 03:51:09;;;;;;;4.82;3.28;;;;;;;25.77;50.41;99366.22;4120205;28;20242;-66
2022/06/26 03:53:11;;;;;;;9.10;6.72;;;;;;;26.01;50.27;99373.91;4123477;28;20630;-66
2022/06/26 03:55:12;;;;;;;6.70;5.47;;;;;;;25.99;50.28;99379.63;4128007;28;20292;-66
2022/06/26 03:57:14;;;;;;;3.57;2.97;;;;;;;25.19;51.97;99378.00;4127638;28;20230;-67
2022/06/26 03:59:19;;;;;;;4.25;2.95;;;;;;;25.37;51.67;99375.91;4124824;28;20225;-66
2022/06/26 04:01:21;;;;;;;3.50;2.90;;;;;;;25.92;50.42;99362.72;4129195;28;20289;-66
2022/06/26 04:03:23;;;;;;;6.20;3.20;;;;;;;26.03;49.83;99361.66;4127960;28;20234;-66
2022/06/26 04:05:25;;;;;;;3.50;2.57;;;;;;;26.67;48.82;99360.28;4127939;28;20233;-67
2022/06/26 04:07:26;;;;;;;3.50;2.72;;;;;;;26.57;48.66;99363.03;4122446;28;20241;-67
2022/06/26 04:09:28;;;;;;;3.80;2.60;;;;;;;26.66;48.57;99366.00;4128453;28;20238;-66
2022/06/26 04:11:30;;;;;;;5.78;3.03;;;;;;;26.80;48.36;99371.69;4129088;28;20272;-66
2022/06/26 04:13:31;;;;;;;4.43;3.07;;;;;;;26.50;49.23;99378.81;4123724;28;20234;-66
2022/06/26 04:15:35;;;;;;;3.28;2.80;;;;;;;26.55;49.12;99375.28;4127420;28;20242;-66
2022/06/26 04:17:36;;;;;;;3.90;2.90;;;;;;;27.07;48.16;99374.91;4128276;28;20549;-66
2022/06/26 04:19:39;;;;;;;4.13;3.50;;;;;;;27.11;47.78;99379.81;4127730;28;20260;-67
2022/06/26 04:21:40;;;;;;;5.95;3.55;;;;;;;26.89;48.67;99370.88;4127052;28;20292;-66
2022/06/26 04:23:42;;;;;;;3.93;3.50;;;;;;;26.26;49.42;99363.00;4122254;28;20261;-68
2022/06/26 04:25:44;;;;;;;4.15;3.20;;;;;;;26.43;49.35;99370.09;4127896;28;20238;-66
2022/06/26 04:27:45;;;;;;;5.22;3.65;;;;;;;26.70;48.52;99370.63;4125520;28;20249;-67
2022/06/26 04:29:47;;;;;;;4.00;3.60;;;;;;;25.41;51.24;99372.38;4128762;28;20233;-66
2022/06/26 04:31:49;;;;;;;6.93;3.90;;;;;;;25.99;50.19;99371.44;4128613;28;20241;-66
2022/06/26 04:33:51;;;;;;;5.35;3.80;;;;;;;25.77;50.65;99360.78;4127238;28;20238;-66
2022/06/26 04:35:53;;;;;;;7.65;3.22;;;;;;;25.27;51.39;99373.13;4127545;28;20288;-66
2022/06/26 04:37:54;;;;;;;4.18;3.10;;;;;;;25.69;51.03;99359.38;4128739;28;20237;-66
2022/06/26 04:39:56;;;;;;;5.68;3.20;;;;;;;25.81;50.50;99366.50;4128449;28;20288;-66
2022/06/26 04:41:58;;;;;;;4.43;3.00;;;;;;;25.81;50.18;99385.56;4158974;28;20248;-66
2022/06/26 04:44:00;;;;;;;4.85;2.97;;;;;;;25.84;50.90;99382.31;4125399;28;20242;-67
2022/06/26 04:46:02;;;;;;;6.10;2.97;;;;;;;26.32;50.02;99380.19;4126416;28;20242;-65
2022/06/26 04:48:04;;;;;;;3.28;2.88;;;;;;;26.31;49.96;99390.25;4128308;28;20735;-65
2022/06/26 04:50:06;;;;;;;6.32;2.90;;;;;;;26.69;49.06;99396.28;4114428;28;20234;-66
2022/06/26 04:52:08;;;;;;;5.20;2.75;;;;;;;26.66;48.63;99399.53;4119122;28;20241;-65
2022/06/26 04:54:10;;;;;;;4.63;2.63;;;;;;;26.23;49.64;99409.06;4127586;28;20257;-66
2022/06/26 04:56:18;;;;;;;4.35;2.45;;;;;;;26.26;49.74;99411.25;4126788;28;20248;-65
2022/06/26 04:58:19;;;;;;;4.93;2.30;;;;;;;25.80;50.37;99428.31;4123362;28;20262;-66
2022/06/26 05:00:21;;;;;;;3.08;2.03;;;;;;;25.80;50.95;99425.59;4124876;28;20230;-66
2022/06/26 05:02:23;;;;;;;5.63;2.55;;;;;;;25.86;50.60;99429.94;4127551;28;20286;-65
2022/06/26 05:04:25;;;;;;;2.53;2.33;;;;;;;26.19;49.85;99422.41;4126848;28;20810;-65
2022/06/26 05:06:27;;;;;;;3.57;2.20;;;;;;;25.99;50.64;99416.94;4117524;28;20222;-66
2022/06/26 05:08:28;;;;;;;4.40;2.20;;;;;;;26.06;49.99;99421.03;4125447;28;20281;-69
2022/06/26 05:10:30;;;;;;;2.60;2.40;;;;;;;25.45;51.05;99427.09;4127272;28;20296;-69
2022/06/26 05:12:32;;;;;;;3.53;2.00;;;;;;;25.93;50.42;99410.63;4128418;28;20241;-68
2022/06/26 05:14:33;;;;;;;3.33;2.05;;;;;;;26.93;48.15;99405.78;4120316;28;20234;-69
2022/06/26 05:16:36;;;;;;;6.97;2.10;;;;;;;26.99;48.00;99408.19;4126043;28;20230;-66
2022/06/26 05:18:38;;;;;;;3.17;2.25;;;;;;;26.64;48.92;99422.72;4127592;28;20236;-68
2022/06/26 05:20:39;;;;;;;3.25;2.10;;;;;;;26.52;49.36;99448.38;4127535;28;20667;-68
2022/06/26 05:22:41;;;;;;;2.53;1.93;;;;;;;25.29;51.97;99452.56;4114643;28;20290;-69
2022/06/26 05:24:43;;;;;;;6.47;2.57;;;;;;;25.99;50.83;99447.72;4125540;28;20242;-68
2022/06/26 05:26:45;;;;;;;6.83;4.77;;;;;;;26.56;49.42;99440.44;4128162;28;20749;-68
2022/06/26 05:28:46;;;;;;;4.50;3.03;;;;;;;26.50;49.52;99439.66;4122530;28;20258;-69
2022/06/26 05:30:48;;;;;;;7.65;4.85;;;;;;;27.00;48.60;99448.03;4127428;28;20288;-68
2022/06/26 05:32:50;;;;;;;4.60;3.35;;;;;;;26.94;49.20;99445.59;4127330;28;20710;-68
2022/06/26 05:34:51;;;;;;;5.72;5.13;;;;;;;26.81;49.23;99442.34;4117745;28;20238;-68
2022/06/26 05:36:53;;;;;;;6.53;5.22;;;;;;;27.24;47.87;99442.00;4127185;28;20381;-68
2022/06/26 05:38:54;;;;;;;8.45;4.40;;;;;;;27.13;48.64;99437.66;4127424;28;20238;-68
2022/06/26 05:40:56;;;;;;;6.75;5.63;;;;;;;26.19;50.84;99440.69;4127273;28;20640;-69
2022/06/26 05:42:58;;;;;;;6.20;4.90;;;;;;;26.87;49.26;99443.13;4127417;28;20304;-68
2022/06/26 05:45:00;;;;;;;4.85;4.15;;;;;;;27.53;48.28;99423.03;4113136;28;20297;-68
2022/06/26 05:47:02;;;;;;;5.03;3.20;;;;;;;27.63;47.35;99433.97;4112658;28;20239;-68
2022/06/26 05:49:08;;;;;;;3.10;2.80;;;;;;;27.93;47.07;99432.13;4118831;28;20258;-68
2022/06/26 05:51:10;;;;;;;4.63;2.22;;;;;;;27.97;47.64;99432.38;4118575;28;20241;-68
2022/06/26 05:53:12;;;;;;;2.72;2.33;;;;;;;26.90;49.13;99437.13;4120718;28;20621;-68
2022/06/26 05:55:13;;;;;;;3.58;2.20;;;;;;;26.76;49.32;99442.34;4125891;28;20272;-69
2022/06/26 05:57:16;;;;;;;3.88;2.00;;;;;;;27.14;49.27;99442.84;4127744;28;20230;-69
2022/06/26 05:59:17;;;;;;;2.40;1.92;;;;;;;27.23;48.01;99435.72;4120998;28;20235;-68
2022/06/26 06:01:19;;;;;;;2.97;2.20;;;;;;;26.62;49.96;99430.34;4125245;28;20830;-68
2022/06/26 06:03:20;;;;;;;4.07;2.35;;;;;;;27.34;49.26;99422.84;4126897;28;20257;-68
2022/06/26 06:05:22;;;;;;;3.30;2.20;;;;;;;27.57;48.28;99429.59;4125754;28;20237;-68
2022/06/26 06:07:24;;;;;;;2.50;2.20;;;;;;;26.87;50.10;99454.06;4119400;28;20288;-69
2022/06/26 06:09:25;;;;;;;2.67;1.90;;;;;;;27.43;48.98;99445.75;4124191;28;20280;-69
2022/06/26 06:11:27;;;;;;;2.97;1.95;;;;;;;27.52;48.77;99445.19;4126559;28;20230;-68
2022/06/26 06:13:29;;;;;;;4.13;1.98;;;;;;;27.46;48.35;99449.84;4126335;28;20225;-68
2022/06/26 06:15:31;;;;;;;1.92;1.75;;;;;;;27.56;48.13;99463.44;4123928;28;20230;-68
2022/06/26 06:17:35;;;;;;;1.73;1.63;;;;;;;27.42;48.22;99465.97;4126712;28;20848;-68
2022/06/26 06:19:38;;;;;;;2.28;2.08;;;;;;;26.92;48.96;99467.69;4118434;28;20300;-68
2022/06/26 06:21:40;;;;;;;2.45;2.20;;;;;;;26.65;49.76;99481.63;4124078;28;20288;-68
2022/06/26 06:23:44;;;;;;;2.05;1.83;;;;;;;27.05;48.67;99477.22;4120318;28;20238;-68
2022/06/26 06:25:45;;;;;;;3.10;1.90;;;;;;;27.55;48.02;99467.28;4125270;28;20242;-68
2022/06/26 06:27:47;;;;;;;3.58;2.30;;;;;;;26.42;51.10;99477.47;4126953;28;20300;-68
2022/06/26 06:29:49;;;;;;;2.95;2.00;;;;;;;26.42;50.74;99474.75;4119006;28;20289;-67
2022/06/26 06:31:51;;;;;;;2.25;2.05;;;;;;;25.91;51.26;99476.28;4109847;28;20321;-69
2022/06/26 06:33:52;;;;;;;3.13;2.20;;;;;;;26.39;50.85;99459.78;4118116;28;20950;-68
2022/06/26 06:35:55;;;;;;;3.67;2.15;;;;;;;26.94;49.46;99459.22;4125376;28;20237;-68
2022/06/26 06:37:57;;;;;;;3.35;2.40;;;;;;;26.59;50.80;99469.06;4125478;28;20284;-68
2022/06/26 06:39:59;;;;;;;8.50;6.75;;;;;;;26.23;51.51;99482.63;4126926;28;20234;-68
2022/06/26 06:42:00;;;;;;;4.82;2.72;;;;;;;24.95;53.78;99480.97;4127373;28;20233;-69
2022/06/26 06:44:02;;;;;;;2.28;2.05;;;;;;;25.18;53.06;99468.03;4125511;28;20766;-69
2022/06/26 06:46:04;;;;;;;2.88;1.90;;;;;;;26.99;49.92;99456.50;4119013;28;20245;-68
2022/06/26 06:48:06;;;;;;;2.00;1.90;;;;;;;26.11;51.21;99483.69;4127147;28;20246;-68
2022/06/26 06:50:08;;;;;;;4.70;2.40;;;;;;;25.42;53.41;99496.50;4111915;28;20598;-68
2022/06/26 06:52:10;;;;;;;5.22;2.22;;;;;;;26.24;50.79;99479.66;4117598;28;20258;-68
2022/06/26 06:54:12;;;;;;;5.03;2.30;;;;;;;27.69;48.67;99481.19;4126005;28;20546;-68
2022/06/26 06:56:13;;;;;;;4.97;2.22;;;;;;;27.57;48.36;99489.66;4124687;28;20231;-68
2022/06/26 06:58:15;;;;;;;4.28;2.28;;;;;;;27.45;48.12;99489.16;4126913;28;20226;-68
2022/06/26 07:00:17;;;;;;;3.45;1.70;;;;;;;27.65;48.85;99484.75;4116021;28;20261;-68
2022/06/26 07:02:18;;;;;;;4.43;2.42;;;;;;;27.67;47.52;99482.53;4122538;28;20653;-68
2022/06/26 07:04:20;;;;;;;4.88;2.83;;;;;;;27.86;47.21;99482.75;4125655;28;20312;-68
2022/06/26 07:06:22;;;;;;;3.53;2.17;;;;;;;28.31;46.53;99487.16;4123071;28;20242;-68
2022/06/26 07:08:24;;;;;;;3.75;2.60;;;;;;;27.55;48.60;99494.59;4121676;28;20284;-68
2022/06/26 07:10:26;;;;;;;2.05;1.95;;;;;;;27.21;48.61;99489.78;4126918;28;20280;-68
2022/06/26 07:12:27;;;;;;;3.83;2.17;;;;;;;27.52;47.40;99492.41;4125724;28;20825;-68
2022/06/26 07:14:29;;;;;;;2.92;2.05;;;;;;;27.71;47.61;99500.81;4124017;28;20293;-68
2022/06/26 07:16:32;;;;;;;3.42;1.98;;;;;;;28.08;47.51;99487.81;4109606;28;20230;-69
2022/06/26 07:18:33;;;;;;;2.50;2.03;;;;;;;28.02;47.17;99499.88;4116108;28;20222;-68
2022/06/26 07:20:35;;;;;;;4.63;2.42;;;;;;;27.35;48.64;99498.19;4128692;28;20292;-66
2022/06/26 07:22:37;;;;;;;3.20;2.10;;;;;;;27.79;48.08;99488.50;4124996;28;20265;-67
2022/06/26 07:24:39;;;;;;;5.13;2.40;;;;;;;28.05;47.30;99488.38;4126693;28;20292;-67
2022/06/26 07:26:41;;;;;;;2.40;2.20;;;;;;;27.74;47.82;99494.00;4129027;28;20230;-68
2022/06/26 07:28:43;;;;;;;4.32;2.08;;;;;;;27.54;48.31;99495.69;4129949;28;20245;-68
2022/06/26 07:30:44;;;;;;;4.18;2.20;;;;;;;27.91;48.17;99489.00;4123601;28;20229;-68
2022/06/26 07:32:46;;;;;;;3.28;2.58;;;;;;;27.51;48.42;99496.22;4128522;28;20238;-68
2022/06/26 07:34:48;;;;;;;5.10;2.30;;;;;;;27.51;47.88;99485.31;4124772;28;20274;-66
2022/06/26 07:36:50;;;;;;;3.33;2.33;;;;;;;28.14;46.66;99492.97;4129752;28;20238;-68
2022/06/26 07:38:52;;;;;;;3.15;1.98;;;;;;;28.62;46.09;99488.84;4129045;28;20230;-66
2022/06/26 07:40:54;;;;;;;2.88;1.90;;;;;;;27.62;47.57;99500.59;4129454;28;20237;-67
2022/06/26 07:42:55;;;;;;;2.13;1.80;;;;;;;28.31;47.03;99489.88;4128847;28;20664;-66
2022/06/26 07:44:57;;;;;;;2.67;1.90;;;;;;;28.02;46.79;99481.53;4124846;28;20245;-66
2022/06/26 07:46:59;;;;;;;2.42;1.42;;;;;;;28.08;46.02;99487.81;4128927;28;20623;-66
2022/06/26 07:49:01;;;;;;;1.30;1.20;;;;;;;28.39;44.96;99495.84;4122070;28;20735;-67
2022/06/26 07:51:03;;;;;;;1.17;1.10;;;;;;;27.88;44.96;99499.66;4120901;28;20241;-66
2022/06/26 07:53:05;;;;;;;1.90;1.58;;;;;;;28.51;44.11;99507.22;4128507;28;20728;-66
2022/06/26 07:55:07;;;;;;;2.13;1.23;;;;;;;28.32;44.73;99505.16;4128328;28;20292;-66
2022/06/26 07:57:09;;;;;;;1.88;1.20;;;;;;;28.02;45.82;99508.06;4128969;28;20737;-66
2022/06/26 07:59:10;;;;;;;2.78;1.50;;;;;;;28.64;45.33;99503.03;4129161;28;20237;-66
2022/06/26 08:01:12;;;;;;;1.42;1.23;;;;;;;28.28;46.61;99504.09;4112082;28;20241;-66
2022/06/26 08:03:18;;;;;;;1.58;1.48;;;;;;;28.77;44.13;99505.16;4128097;28;20230;-66
2022/06/26 08:05:19;;;;;;;2.47;1.48;;;;;;;28.85;44.83;99520.94;4126717;28;20292;-66
2022/06/26 08:07:21;;;;;;;1.55;1.35;;;;;;;28.85;44.70;99520.09;4122113;28;20664;-66
2022/06/26 08:09:23;;;;;;;1.92;1.50;;;;;;;28.52;45.61;99525.28;4127502;28;20292;-74
2022/06/26 08:11:25;;;;;;;3.20;1.65;;;;;;;28.55;45.02;99520.06;4122438;28;20234;-66
2022/06/26 08:13:26;;;;;;;1.55;1.45;;;;;;;29.30;44.26;99515.31;4122489;28;20703;-66
2022/06/26 08:15:32;;;;;;;1.55;1.42;;;;;;;28.32;45.66;99510.63;4122229;28;20235;-68
2022/06/26 08:17:34;;;;;;;1.70;1.60;;;;;;;28.67;45.28;99500.53;4122555;28;20229;-69
2022/06/26 08:19:36;;;;;;;2.28;1.70;;;;;;;29.19;44.95;99480.94;4120692;28;20238;-69
2022/06/26 08:23:58;;;;;;;2.00;1.30;;;;;;;28.85;45.31;99500.94;4120913;28;20319;-68
2022/06/26 08:26:00;;;;;;;1.80;1.70;;;;;;;28.81;45.09;99514.41;4127893;28;20234;-68
2022/06/26 08:28:02;;;;;;;2.10;1.70;;;;;;;28.21;45.55;99505.50;4128695;28;20230;-68
2022/06/26 08:30:04;;;;;;;1.33;1.15;;;;;;;28.05;45.92;99502.84;4129505;28;20273;-69
2022/06/26 08:32:06;;;;;;;1.60;1.50;;;;;;;28.61;45.19;99495.41;4124472;28;20234;-69
2022/06/26 08:34:08;;;;;;;1.98;1.80;;;;;;;28.31;44.87;99503.56;4128402;28;20327;-69
2022/06/26 08:36:10;;;;;;;1.65;1.55;;;;;;;28.73;44.50;99485.75;4126770;28;20233;-67
2022/06/26 08:38:11;;;;;;;1.60;1.50;;;;;;;29.91;42.67;99496.56;4128944;28;20242;-66
2022/06/26 08:40:13;;;;;;;1.77;1.38;;;;;;;29.43;43.02;99505.63;4128050;28;20238;-65
2022/06/26 08:42:15;;;;;;;1.52;1.40;;;;;;;29.83;43.47;99498.84;4121626;28;20233;-66
2022/06/26 08:44:16;;;;;;;2.95;1.60;;;;;;;28.71;45.01;99495.34;4121775;28;20253;-67
2022/06/26 08:46:21;;;;;;;2.25;1.50;;;;;;;28.09;46.59;99492.16;4116451;28;20222;-67
2022/06/26 08:48:26;;;;;;;1.50;1.40;;;;;;;27.92;45.76;99484.34;4111134;28;20261;-66
2022/06/26 08:50:29;;;;;;;3.22;1.27;;;;;;;29.36;43.96;99484.06;4117015;28;20234;-65
2022/06/26 08:52:32;;;;;;;1.48;1.38;;;;;;;29.07;45.27;99490.34;4123231;28;20651;-67
2022/06/26 08:54:34;;;;;;;1.45;1.35;;;;;;;29.57;44.35;99487.34;4124167;28;20244;-66
2022/06/26 08:56:38;;;;;;;2.97;1.52;;;;;;;29.04;44.61;99499.13;4127515;28;20300;-68
2022/06/26 08:58:40;;;;;;;1.45;1.30;;;;;;;29.50;44.04;99486.91;4127551;28;20233;-66
2022/06/26 09:00:46;;;;;;;1.67;1.55;;;;;;;29.34;44.22;99499.97;4156928;28;20240;-66
2022/06/26 09:02:48;;;;;;;1.50;1.40;;;;;;;29.49;43.68;99507.19;4127960;28;20230;-67
2022/06/26 09:04:49;;;;;;;1.13;1.13;;;;;;;30.18;42.83;99515.09;4126789;28;20311;-66
2022/06/26 09:06:51;;;;;;;1.60;1.50;;;;;;;30.04;43.14;99520.50;4120859;28;20231;-67
2022/06/26 09:08:53;;;;;;;3.25;1.80;;;;;;;29.91;42.62;99522.06;4151297;28;20302;-67
2022/06/26 09:10:57;;;;;;;1.42;1.33;;;;;;;29.95;42.23;99528.56;4128613;28;20241;-69
2022/06/26 09:12:58;;;;;;;1.75;1.50;;;;;;;29.82;42.80;99532.84;4126767;28;20743;-69
2022/06/26 09:15:00;;;;;;;2.17;1.30;;;;;;;29.63;43.48;99523.75;4126778;28;20312;-70
2022/06/26 09:17:02;;;;;;;1.48;1.20;;;;;;;30.32;42.37;99516.00;4116867;28;20234;-70
2022/06/26 09:19:12;;;;;;;1.48;1.13;;;;;;;29.42;43.59;99521.25;4112484;28;20238;-69
2022/06/26 09:21:14;;;;;;;1.70;1.40;;;;;;;30.28;42.54;99505.94;4133276;28;20237;-69
2022/06/26 09:23:16;;;;;;;1.40;1.30;;;;;;;29.72;44.09;99519.25;4115871;28;20701;-69
2022/06/26 09:25:17;;;;;;;1.20;1.20;;;;;;;30.49;41.66;99520.16;4125298;28;20245;-70
2022/06/26 09:27:21;;;;;;;1.33;1.30;;;;;;;30.25;43.08;99520.22;4127949;28;20316;-70
2022/06/26 09:29:23;;;;;;;1.70;1.33;;;;;;;29.99;42.66;99515.09;4119913;28;20242;-69
2022/06/26 09:31:24;;;;;;;2.25;1.30;;;;;;;29.95;42.24;99512.13;4154977;28;20259;-69
2022/06/26 09:33:29;;;;;;;3.17;1.10;;;;;;;30.20;42.24;99521.09;4127391;28;20225;-69
2022/06/26 09:35:31;;;;;;;1.65;1.40;;;;;;;29.99;43.53;99523.31;4125145;28;20238;-69
2022/06/26 09:37:39;;;;;;;2.22;1.50;;;;;;;30.09;43.01;99508.66;4127072;28;20260;-66
2022/06/26 09:40:05;;;;;;;2.85;1.45;;;;;;;30.43;42.40;99507.63;4127929;28;20238;-67
2022/06/26 09:42:17;;;;;;;1.58;1.48;;;;;;;29.99;43.56;99501.38;4126789;28;20222;-67